Time;durP1;ratioP1;P1;durP2;ratioP2;P2;SDS_P1;SDS_P2;PMS_P1;PMS_P2;Temp;Humidity;BMP_temperature;BMP_pressure;BME280_temperature;BME280_humidity;BME280_pressure;Samples;Min_cycle;Max_cycle;Signal;HPM_P1;HPM_P2
2023/04/29 00:01:38;;;;;;;7.25;2.42;;;12.40;85.70;;;;;;6210888;22;20357;-80
2023/04/29 00:04:06;;;;;;;3.72;2.50;;;12.40;86.60;;;;;;6208108;22;20046;-80
2023/04/29 00:06:33;;;;;;;4.60;2.15;;;12.40;86.20;;;;;;6209546;22;20026;-80
2023/04/29 00:09:00;;;;;;;4.60;2.72;;;12.40;86.60;;;;;;6207930;22;20431;-80
2023/04/29 00:11:27;;;;;;;2.92;2.08;;;12.30;86.40;;;;;;6205670;22;20472;-79
2023/04/29 00:13:54;;;;;;;3.83;2.33;;;12.30;86.70;;;;;;6205402;22;20437;-79
2023/04/29 00:16:21;;;;;;;6.10;2.45;;;12.30;87.00;;;;;;6207767;22;20430;-79
2023/04/29 00:18:49;;;;;;;3.97;2.20;;;12.30;86.70;;;;;;6207800;22;20455;-80
2023/04/29 00:21:16;;;;;;;5.25;2.30;;;12.20;85.90;;;;;;6207908;22;20438;-80
2023/04/29 00:23:43;;;;;;;5.47;3.30;;;12.30;85.80;;;;;;6208896;22;20020;-80
2023/04/29 00:26:10;;;;;;;8.07;3.17;;;12.30;86.10;;;;;;6206450;22;20019;-79
2023/04/29 00:28:38;;;;;;;12.00;3.42;;;12.30;86.80;;;;;;6232296;22;20028;-80
2023/04/29 00:31:05;;;;;;;5.90;3.33;;;12.30;86.40;;;;;;6205503;22;20027;-79
2023/04/29 00:33:33;;;;;;;5.70;2.75;;;12.20;86.10;;;;;;6207182;22;20019;-79
2023/04/29 00:36:01;;;;;;;7.60;2.78;;;12.20;86.20;;;;;;6206893;22;20399;-80
2023/04/29 00:38:28;;;;;;;5.70;2.95;;;12.20;85.80;;;;;;6209000;22;20027;-80
2023/04/29 00:40:56;;;;;;;4.65;2.72;;;12.20;85.60;;;;;;6207706;22;20031;-80
2023/04/29 00:43:23;;;;;;;5.47;2.70;;;12.20;85.80;;;;;;6207292;22;20338;-79
2023/04/29 00:45:50;;;;;;;4.30;2.88;;;12.20;86.00;;;;;;6206706;22;20027;-80
2023/04/29 00:48:17;;;;;;;4.43;2.50;;;12.20;85.70;;;;;;6207348;22;20433;-79
2023/04/29 00:50:44;;;;;;;4.93;2.53;;;12.20;85.20;;;;;;6206713;22;20043;-79
2023/04/29 00:53:12;;;;;;;3.90;2.38;;;12.10;84.80;;;;;;6207562;22;20053;-79
2023/04/29 00:55:41;;;;;;;5.55;2.40;;;12.10;85.00;;;;;;6233593;22;20105;-79
2023/04/29 00:58:09;;;;;;;4.05;2.10;;;12.10;84.70;;;;;;6209014;22;20057;-79
2023/04/29 01:00:37;;;;;;;4.55;2.35;;;12.10;84.10;;;;;;6209586;22;20027;-78
2023/04/29 01:03:05;;;;;;;4.45;2.67;;;12.10;84.10;;;;;;6208893;22;20412;-79
2023/04/29 01:05:34;;;;;;;4.40;2.20;;;12.10;83.80;;;;;;6207601;22;20016;-79
2023/04/29 01:08:07;;;;;;;6.00;2.72;;;12.00;83.90;;;;;;6208402;22;20094;-79
2023/04/29 01:11:06;;;;;;;5.97;2.28;;;12.00;84.10;;;;;;6208770;22;20027;-79
2023/04/29 01:13:59;;;;;;;6.15;2.72;;;12.00;84.20;;;;;;6216040;22;20035;-79
2023/04/29 01:16:28;;;;;;;;;;;12.00;84.30;;;;;;6212470;22;20115;-79
2023/04/29 01:18:58;;;;;;;;;;;12.00;84.00;;;;;;6212198;22;20412;-80
2023/04/29 01:21:30;;;;;;;;;;;12.00;83.90;;;;;;6214742;22;19926;-80
2023/04/29 01:23:57;;;;;;;;;;;12.00;83.60;;;;;;6207952;22;19919;-79
2023/04/29 01:26:30;;;;;;;;;;;11.90;83.10;;;;;;6209795;22;19973;-80
2023/04/29 01:29:34;;;;;;;;;;;12.00;83.00;;;;;;6214562;22;19946;-80
2023/04/29 01:32:07;;;;;;;;;;;12.00;82.60;;;;;;6234182;22;20406;-79
2023/04/29 01:34:41;;;;;;;;;;;12.00;82.40;;;;;;6211352;22;20139;-79
2023/04/29 01:37:14;;;;;;;;;;;12.00;82.20;;;;;;6211114;22;20026;-80
2023/04/29 01:40:04;;;;;;;;;;;12.00;82.30;;;;;;6209842;22;20529;-79
2023/04/29 01:42:44;;;;;;;;;;;12.00;82.70;;;;;;6210416;22;19919;-79
2023/04/29 01:45:20;;;;;;;;;;;11.90;81.70;;;;;;6210302;22;20018;-80
2023/04/29 01:47:47;;;;;;;;;;;11.90;81.60;;;;;;6214315;22;20330;-80
2023/04/29 01:50:15;;;;;;;;;;;11.90;81.90;;;;;;6209441;22;19923;-80
2023/04/29 01:52:42;;;;;;;;;;;11.90;81.90;;;;;;6209188;22;19915;-79
2023/04/29 01:55:09;;;;;;;;;;;11.90;81.50;;;;;;6209367;22;20523;-80
2023/04/29 01:57:47;;;;;;;;;;;11.90;81.90;;;;;;6210967;22;19925;-80
2023/04/29 02:00:43;;;;;;;;;;;11.90;82.50;;;;;;6176941;23;19919;-80
2023/04/29 02:03:10;;;;;;;;;;;11.90;82.70;;;;;;6150015;23;19998;-79
2023/04/29 02:05:41;;;;;;;;;;;11.90;83.90;;;;;;6152389;23;19919;-79
2023/04/29 02:08:08;;;;;;;;;;;11.90;84.60;;;;;;6173134;23;19926;-79
2023/04/29 02:10:40;;;;;;;;;;;11.90;85.30;;;;;;6148495;23;20332;-80
2023/04/29 02:13:17;;;;;;;;;;;11.80;85.10;;;;;;6149914;23;19926;-80
2023/04/29 02:15:44;;;;;;;;;;;11.90;85.50;;;;;;6146964;23;19982;-80
2023/04/29 02:18:11;;;;;;;;;;;11.80;84.80;;;;;;6192213;23;19920;-80
2023/04/29 02:20:40;;;;;;;;;;;11.80;84.50;;;;;;6151469;23;19947;-80
2023/04/29 02:23:07;;;;;;;;;;;11.90;85.00;;;;;;6146347;23;20214;-80
2023/04/29 02:25:35;;;;;;;;;;;11.90;85.00;;;;;;6148482;23;20387;-80
2023/04/29 02:28:02;;;;;;;;;;;11.90;84.30;;;;;;6146844;23;19970;-80
2023/04/29 02:30:29;;;;;;;;;;;11.80;84.00;;;;;;6147035;23;19920;-80
2023/04/29 02:32:56;;;;;;;;;;;11.80;83.90;;;;;;6209441;22;20301;-80
2023/04/29 02:35:23;;;;;;;;;;;11.50;83.80;;;;;;6209390;22;19922;-80
2023/04/29 02:37:51;;;;;;;;;;;11.80;83.90;;;;;;6208599;22;19926;-80
2023/04/29 02:40:18;;;;;;;;;;;11.80;83.70;;;;;;6209042;22;20705;-80
2023/04/29 02:42:45;;;;;;;;;;;11.80;83.70;;;;;;6218665;22;19915;-80
2023/04/29 02:45:12;;;;;;;;;;;11.80;83.70;;;;;;6211547;22;20289;-80
2023/04/29 02:47:39;;;;;;;;;;;11.80;83.70;;;;;;6208300;22;19920;-80
2023/04/29 02:50:06;;;;;;;;;;;11.80;83.90;;;;;;6213291;22;19961;-80
2023/04/29 02:52:33;;;;;;;;;;;11.80;83.70;;;;;;6207881;22;19919;-80
2023/04/29 02:55:00;;;;;;;;;;;11.80;83.80;;;;;;6212777;22;19919;-80
2023/04/29 02:57:28;;;;;;;;;;;11.80;83.20;;;;;;6209040;22;20247;-80
2023/04/29 02:59:56;;;;;;;;;;;11.80;83.40;;;;;;6208865;22;19923;-80
2023/04/29 03:02:23;;;;;;;;;;;11.80;83.10;;;;;;6209428;22;19919;-80
2023/04/29 03:04:54;;;;;;;;;;;11.80;83.10;;;;;;6212452;22;20498;-80
2023/04/29 03:07:21;;;;;;;;;;;11.80;83.30;;;;;;6208860;22;19942;-80
2023/04/29 03:09:48;;;;;;;;;;;11.80;83.60;;;;;;6208755;22;20343;-81
2023/04/29 03:12:15;;;;;;;;;;;11.80;83.50;;;;;;6208273;22;19945;-81
2023/04/29 03:14:45;;;;;;;;;;;11.80;83.80;;;;;;6208888;22;19922;-81
2023/04/29 03:17:12;;;;;;;;;;;11.80;83.90;;;;;;6233806;22;20382;-81
2023/04/29 03:19:40;;;;;;;;;;;11.80;83.30;;;;;;6209088;22;19926;-81
2023/04/29 03:22:09;;;;;;;;;;;11.80;83.00;;;;;;6209011;22;19923;-80
2023/04/29 03:24:38;;;;;;;;;;;11.80;82.80;;;;;;6208890;22;19918;-80
2023/04/29 03:27:05;;;;;;;;;;;11.70;82.70;;;;;;6209022;22;19934;-80
2023/04/29 03:29:32;;;;;;;;;;;11.70;82.70;;;;;;6207856;22;19919;-80
2023/04/29 03:32:01;;;;;;;;;;;11.70;82.80;;;;;;6214127;22;19926;-81
2023/04/29 03:34:28;;;;;;;;;;;11.70;82.60;;;;;;6209632;22;20342;-81
2023/04/29 03:37:15;;;;;;;;;;;11.70;82.60;;;;;;6212870;22;19919;-81
2023/04/29 03:39:46;;;;;;;;;;;11.70;82.40;;;;;;6209234;22;19923;-80
2023/04/29 03:42:13;;;;;;;;;;;11.60;82.30;;;;;;6208445;22;19915;-80
2023/04/29 03:44:40;;;;;;;;;;;11.60;82.00;;;;;;6208874;22;19919;-80
2023/04/29 03:47:08;;;;;;;;;;;11.60;81.90;;;;;;6207937;22;19919;-80
2023/04/29 03:49:35;;;;;;;;;;;11.60;82.00;;;;;;6209745;22;19990;-80
2023/04/29 03:52:03;;;;;;;;;;;11.60;81.50;;;;;;6209215;22;19926;-80
2023/04/29 03:54:30;;;;;;;;;;;11.60;81.60;;;;;;6208908;22;19951;-80
2023/04/29 03:56:58;;;;;;;;;;;11.60;81.20;;;;;;6207446;22;19973;-80
2023/04/29 03:59:25;;;;;;;;;;;11.60;81.80;;;;;;6208598;22;19942;-80
2023/04/29 04:01:53;;;;;;;;;;;11.60;81.10;;;;;;6206903;22;20325;-80
2023/04/29 04:04:20;;;;;;;;;;;11.60;81.40;;;;;;6240261;22;19930;-80
2023/04/29 04:06:50;;;;;;;;;;;11.60;81.30;;;;;;6209114;22;19977;-80
2023/04/29 04:09:20;;;;;;;;;;;11.60;81.20;;;;;;6208233;22;19919;-80
2023/04/29 04:11:47;;;;;;;;;;;11.60;81.60;;;;;;6207339;22;19969;-80
2023/04/29 04:14:14;;;;;;;;;;;11.60;81.30;;;;;;6206932;22;20392;-80
2023/04/29 04:16:41;;;;;;;;;;;11.60;81.10;;;;;;6205547;22;19919;-80
2023/04/29 04:19:09;;;;;;;;;;;11.60;80.80;;;;;;6208247;22;19919;-80
2023/04/29 04:21:39;;;;;;;;;;;11.60;81.10;;;;;;6215361;22;19919;-80
2023/04/29 04:24:08;;;;;;;;;;;11.60;81.00;;;;;;6209629;22;20355;-80
2023/04/29 04:26:36;;;;;;;;;;;11.60;80.70;;;;;;6210023;22;19992;-80
2023/04/29 04:29:13;;;;;;;;;;;11.60;80.40;;;;;;6214905;22;19990;-81
2023/04/29 04:31:58;;;;;;;;;;;11.70;80.50;;;;;;6221702;22;19965;-81
2023/04/29 04:34:26;;;;;;;;;;;11.60;80.20;;;;;;6213278;22;19923;-81
2023/04/29 04:36:55;;;;;;;;;;;11.60;81.00;;;;;;6212943;22;19923;-80
2023/04/29 04:39:22;;;;;;;;;;;11.60;81.10;;;;;;6211867;22;19927;-81
2023/04/29 04:41:51;;;;;;;;;;;11.60;80.90;;;;;;6213296;22;20393;-80
2023/04/29 04:44:18;;;;;;;;;;;11.60;80.50;;;;;;6211776;22;19919;-81
2023/04/29 04:47:01;;;;;;;;;;;11.60;80.80;;;;;;6213992;22;20351;-81
2023/04/29 04:49:45;;;;;;;;;;;11.70;81.00;;;;;;6215641;22;19922;-80
2023/04/29 04:52:12;;;;;;;;;;;11.70;80.80;;;;;;6212614;22;19919;-81
2023/04/29 04:54:45;;;;;;;;;;;11.60;81.00;;;;;;6212476;22;19919;-81
2023/04/29 04:57:16;;;;;;;;;;;11.70;80.70;;;;;;6242743;22;20334;-81
2023/04/29 04:59:43;;;;;;;;;;;11.70;80.40;;;;;;6212182;22;19915;-81
2023/04/29 05:02:10;;;;;;;;;;;11.70;80.40;;;;;;6212453;22;20000;-81
2023/04/29 05:04:38;;;;;;;;;;;11.70;80.30;;;;;;6215517;22;20354;-81
2023/04/29 05:07:05;;;;;;;;;;;11.70;80.80;;;;;;6211791;22;20190;-81
2023/04/29 05:09:48;;;;;;;;;;;11.70;81.10;;;;;;6221247;22;20247;-80
2023/04/29 05:12:15;;;;;;;;;;;11.70;81.60;;;;;;6239066;22;19919;-80
2023/04/29 05:14:42;;;;;;;;;;;11.70;82.10;;;;;;6211477;22;19926;-81
2023/04/29 05:17:10;;;;;;;;;;;11.70;82.60;;;;;;6216439;22;19919;-81
2023/04/29 05:19:37;;;;;;;;;;;11.80;83.20;;;;;;6213127;22;19919;-81
2023/04/29 05:22:04;;;;;;;;;;;11.80;83.90;;;;;;6215277;22;19919;-81
2023/04/29 05:24:32;;;;;;;;;;;11.80;83.50;;;;;;6212516;22;19980;-81
2023/04/29 05:26:59;;;;;;;;;;;11.90;84.10;;;;;;6213438;22;20251;-81
2023/04/29 05:29:26;;;;;;;;;;;11.90;84.10;;;;;;6212658;22;19926;-81
2023/04/29 05:31:58;;;;;;;;;;;11.90;84.20;;;;;;6243163;22;19926;-81
2023/04/29 05:34:25;;;;;;;;;;;11.90;83.80;;;;;;6211805;22;19941;-81
2023/04/29 05:36:52;;;;;;;;;;;11.90;84.20;;;;;;6215511;22;19919;-81
2023/04/29 05:39:19;;;;;;;;;;;11.90;83.50;;;;;;6216220;22;20343;-82
2023/04/29 05:41:55;;;;;;;;;;;11.90;83.50;;;;;;6213182;22;20343;-81
2023/04/29 05:44:33;;;;;;;;;;;11.90;82.80;;;;;;6215078;22;19919;-81
2023/04/29 05:47:00;;;;;;;;;;;11.80;82.70;;;;;;6217742;22;19919;-81
2023/04/29 05:49:27;;;;;;;;;;;11.80;82.90;;;;;;6209652;22;19992;-81
2023/04/29 05:51:54;;;;;;;;;;;11.80;83.10;;;;;;6210350;22;20406;-81
2023/04/29 05:54:21;;;;;;;;;;;11.80;83.60;;;;;;6209624;22;19938;-81
2023/04/29 05:56:48;;;;;;;;;;;11.80;83.90;;;;;;6210622;22;20169;-81
2023/04/29 05:59:15;;;;;;;;;;;11.80;83.80;;;;;;6214565;22;19915;-81
2023/04/29 06:01:48;;;;;;;;;;;11.80;83.90;;;;;;6209943;22;19939;-81
2023/04/29 06:04:15;;;;;;;;;;;11.80;84.00;;;;;;6219551;22;19938;-81
2023/04/29 06:07:01;;;;;;;;;;;11.80;83.70;;;;;;6239103;22;20000;-81
2023/04/29 06:10:01;;;;;;;;;;;11.90;84.20;;;;;;6218408;22;19923;-81
2023/04/29 06:12:29;;;;;;;;;;;11.90;84.40;;;;;;6214268;22;19919;-81
2023/04/29 06:14:57;;;;;;;;;;;11.90;84.10;;;;;;6210659;22;19934;-81
2023/04/29 06:17:24;;;;;;;;;;;12.00;83.80;;;;;;6209555;22;20378;-80
2023/04/29 06:19:51;;;;;;;;;;;11.60;83.00;;;;;;6208958;22;19926;-81
2023/04/29 06:22:19;;;;;;;;;;;12.00;83.30;;;;;;6213012;22;19953;-81
2023/04/29 06:24:49;;;;;;;;;;;12.10;83.40;;;;;;6210848;22;19972;-81
2023/04/29 06:27:25;;;;;;;;;;;12.10;83.20;;;;;;6212529;22;20342;-81
2023/04/29 06:29:52;;;;;;;;;;;12.60;82.80;;;;;;6213190;22;19923;-80
2023/04/29 06:32:19;;;;;;;;;;;12.30;82.10;;;;;;6209585;22;19929;-81
2023/04/29 06:34:46;;;;;;;;;;;12.30;81.60;;;;;;6209687;22;20468;-80
2023/04/29 06:37:36;;;;;;;;;;;12.40;82.10;;;;;;6212606;22;20022;-81
2023/04/29 06:40:19;;;;;;;;;;;12.40;82.10;;;;;;6213233;22;20004;-81
2023/04/29 06:43:29;;;;;;;;;;;12.40;81.70;;;;;;6109016;23;19992;-81
2023/04/29 06:46:27;;;;;;;;;;;12.40;81.30;;;;;;6084064;23;19948;-81
2023/04/29 06:49:05;;;;;;;;;;;11.30;80.40;;;;;;6185955;22;20347;-81
2023/04/29 06:51:34;;;;;;;;;;;12.50;80.10;;;;;;6213816;22;20339;-81
2023/04/29 06:54:01;;;;;;;;;;;12.50;79.80;;;;;;6211299;22;19919;-81
2023/04/29 06:56:28;;;;;;;;;;;12.50;79.70;;;;;;6210546;22;20333;-81
2023/04/29 06:58:55;;;;;;;;;;;12.50;80.00;;;;;;6212696;22;19919;-81
2023/04/29 07:01:22;;;;;;;;;;;12.60;80.50;;;;;;6208606;22;19984;-80
2023/04/29 07:03:50;;;;;;;;;;;12.70;80.00;;;;;;6208999;22;19925;-80
2023/04/29 07:06:18;;;;;;;;;;;12.80;79.90;;;;;;6218339;22;20254;-80
2023/04/29 07:08:45;;;;;;;;;;;13.10;79.80;;;;;;6215898;22;19923;-81
2023/04/29 07:11:14;;;;;;;;;;;13.30;79.00;;;;;;6214267;22;20330;-80
2023/04/29 07:13:41;;;;;;;;;;;13.40;79.10;;;;;;6209296;22;19923;-80
2023/04/29 07:16:20;;;;;;;;;;;13.30;78.10;;;;;;6213345;22;19972;-80
2023/04/29 07:18:49;;;;;;;;;;;13.30;78.20;;;;;;6212330;22;19942;-79
2023/04/29 07:21:16;;;;;;;;;;;13.30;78.20;;;;;;6208047;22;19919;-78
2023/04/29 07:23:43;;;;;;;;;;;13.20;78.20;;;;;;6208950;22;19961;-81
2023/04/29 07:26:12;;;;;;;;;;;13.20;77.70;;;;;;6218864;22;20003;-80
2023/04/29 07:28:39;;;;;;;;;;;13.10;77.80;;;;;;6209125;22;19919;-80
2023/04/29 07:31:08;;;;;;;;;;;13.10;77.70;;;;;;6209923;22;19919;-80
2023/04/29 07:33:40;;;;;;;;;;;13.10;77.80;;;;;;6208329;22;19945;-80
2023/04/29 07:36:09;;;;;;;;;;;13.10;77.30;;;;;;6211973;22;19977;-80
2023/04/29 07:38:36;;;;;;;;;;;13.10;76.80;;;;;;6208452;22;19923;-80
2023/04/29 07:41:03;;;;;;;;;;;13.10;76.60;;;;;;6209096;22;19919;-79
2023/04/29 07:43:30;;;;;;;;;;;13.20;76.70;;;;;;6209026;22;20393;-81
2023/04/29 07:45:58;;;;;;;;;;;13.30;76.50;;;;;;6209035;22;20345;-81
2023/04/29 07:48:25;;;;;;;;;;;13.40;76.70;;;;;;6214983;22;19915;-80
2023/04/29 07:50:52;;;;;;;;;;;13.40;77.20;;;;;;6209808;22;19919;-81
2023/04/29 07:53:20;;;;;;;;;;;13.50;76.30;;;;;;6212890;22;20323;-81
2023/04/29 07:55:49;;;;;;;;;;;13.60;76.50;;;;;;6209533;22;19919;-81
2023/04/29 07:58:18;;;;;;;;;;;13.60;74.80;;;;;;6213255;22;19949;-80
2023/04/29 08:00:46;;;;;;;;;;;13.60;74.80;;;;;;6210792;22;20022;-80
2023/04/29 08:03:13;;;;;;;;;;;13.70;75.30;;;;;;6212969;22;19945;-81
2023/04/29 08:05:42;;;;;;;;;;;13.70;75.10;;;;;;6208092;22;20345;-80
2023/04/29 08:08:13;;;;;;;;;;;13.70;75.10;;;;;;6208123;22;20380;-80
2023/04/29 08:10:42;;;;;;;;;;;13.70;74.30;;;;;;6206897;22;19929;-80
2023/04/29 08:13:09;;;;;;;;;;;13.80;74.40;;;;;;6208398;22;20026;-80
2023/04/29 08:15:36;;;;;;;;;;;14.10;75.70;;;;;;6209318;22;20526;-79
2023/04/29 08:18:03;;;;;;;;;;;14.60;74.40;;;;;;6204924;22;19933;-80
2023/04/29 08:20:30;;;;;;;;;;;14.90;72.00;;;;;;6204106;22;20030;-79
2023/04/29 08:22:58;;;;;;;;;;;14.90;71.20;;;;;;6207179;22;19919;-80
2023/04/29 08:25:25;;;;;;;;;;;14.80;70.20;;;;;;6204958;22;19923;-80
2023/04/29 08:27:53;;;;;;;;;;;14.70;70.60;;;;;;6203683;22;20031;-80
2023/04/29 08:30:19;;;;;;;;;;;14.60;69.10;;;;;;6203679;22;19918;-80
2023/04/29 08:32:47;;;;;;;;;;;14.60;70.10;;;;;;6204796;22;19923;-79
2023/04/29 08:35:14;;;;;;;;;;;14.60;69.40;;;;;;6230653;22;19954;-79
2023/04/29 08:37:41;;;;;;;;;;;14.60;69.60;;;;;;6205097;22;19919;-80
2023/04/29 08:40:09;;;;;;;;;;;14.60;68.80;;;;;;6206614;22;19922;-80
2023/04/29 08:42:36;;;;;;;;;;;14.60;69.20;;;;;;6236433;22;20436;-80
2023/04/29 08:45:03;;;;;;;;;;;14.70;69.40;;;;;;6207739;22;20341;-79
2023/04/29 08:47:32;;;;;;;;;;;14.90;68.70;;;;;;6236039;22;19927;-80
2023/04/29 08:50:03;;;;;;;;;;;15.00;68.00;;;;;;6209798;22;20098;-80
2023/04/29 08:52:31;;;;;;;;;;;15.10;67.30;;;;;;6207751;22;19926;-80
2023/04/29 08:55:00;;;;;;;;;;;15.40;67.10;;;;;;6201287;22;19997;-80
2023/04/29 08:57:28;;;;;;;;;;;15.50;67.20;;;;;;6206512;22;20347;-81
2023/04/29 08:59:55;;;;;;;;;;;15.60;67.90;;;;;;6209813;22;19921;-80
2023/04/29 09:02:23;;;;;;;;;;;15.90;68.40;;;;;;6209671;22;20339;-80
2023/04/29 09:05:05;;;;;;;;;;;16.00;67.80;;;;;;6208784;22;19988;-77
2023/04/29 09:07:32;;;;;;;;;;;16.30;67.90;;;;;;6212630;22;19925;-81
2023/04/29 09:10:00;;;;;;;;;;;16.60;63.10;;;;;;6203293;22;20414;-80
2023/04/29 09:12:29;;;;;;;;;;;16.50;62.20;;;;;;6208726;22;19961;-80
2023/04/29 09:14:56;;;;;;;;;;;16.70;64.50;;;;;;6206095;22;19919;-80
2023/04/29 09:17:38;;;;;;;;;;;17.00;62.00;;;;;;6215458;22;20307;-79
2023/04/29 09:20:24;;;;;;;;;;;17.00;61.60;;;;;;6207615;22;19919;-80
2023/04/29 09:22:52;;;;;;;;;;;17.00;61.40;;;;;;6214811;22;20373;-80
2023/04/29 09:25:19;;;;;;;;;;;17.10;63.00;;;;;;6237978;22;19915;-80
2023/04/29 09:27:46;;;;;;;;;;;17.10;63.20;;;;;;6211674;22;19923;-80
2023/04/29 09:30:15;;;;;;;;;;;16.90;61.20;;;;;;6210577;22;20410;-79
2023/04/29 09:32:43;;;;;;;;;;;16.80;60.60;;;;;;6211534;22;19949;-79
2023/04/29 09:35:20;;;;;;;;;;;17.00;61.50;;;;;;6211556;22;19923;-78
2023/04/29 09:37:47;;;;;;;;;;;16.90;60.70;;;;;;6236677;22;19919;-77
2023/04/29 09:40:30;;;;;;;;;;;16.80;61.20;;;;;;6214056;22;19919;-80
2023/04/29 09:42:58;;;;;;;;;;;16.60;61.80;;;;;;6218280;22;19929;-80
2023/04/29 09:45:33;;;;;;;;;;;16.70;61.80;;;;;;6211509;22;20396;-78
2023/04/29 09:48:04;;;;;;;;;;;16.70;62.10;;;;;;6210676;22;20352;-79
2023/04/29 09:50:31;;;;;;;;;;;16.70;61.40;;;;;;6210332;22;19926;-78
2023/04/29 09:52:59;;;;;;;;;;;16.60;60.20;;;;;;6210256;22;19941;-79
2023/04/29 09:55:26;;;;;;;;;;;16.70;60.90;;;;;;6235784;22;20029;-77
2023/04/29 09:57:53;;;;;;;;;;;16.70;60.40;;;;;;6210565;22;20358;-78
2023/04/29 10:00:20;;;;;;;;;;;16.90;61.50;;;;;;6210894;22;19919;-80
2023/04/29 10:02:48;;;;;;;;;;;16.90;61.20;;;;;;6236298;22;20335;-80
2023/04/29 10:05:15;;;;;;;;;;;17.10;60.80;;;;;;6235638;22;19943;-78
2023/04/29 10:07:44;;;;;;;;;;;17.10;61.20;;;;;;6212023;22;20026;-78
2023/04/29 10:10:12;;;;;;;;;;;17.20;60.80;;;;;;6238859;22;19929;-79
2023/04/29 10:12:40;;;;;;;;;;;17.20;61.40;;;;;;6211036;22;19923;-81
2023/04/29 10:15:07;;;;;;;;;;;17.20;60.50;;;;;;6211443;22;19919;-80
2023/04/29 10:17:35;;;;;;;;;;;17.30;61.00;;;;;;6210269;22;19918;-79
2023/04/29 10:20:07;;;;;;;;;;;17.40;61.00;;;;;;6210137;22;19922;-81
2023/04/29 10:22:39;;;;;;;;;;;17.50;61.20;;;;;;6216677;22;19919;-81
2023/04/29 10:25:06;;;;;;;;;;;17.60;60.50;;;;;;6212478;22;20233;-81
2023/04/29 10:27:36;;;;;;;;;;;17.60;60.30;;;;;;6214389;22;19915;-80
2023/04/29 10:30:03;;;;;;;;;;;17.80;60.50;;;;;;6215942;22;19919;-77
2023/04/29 10:32:31;;;;;;;;;;;18.00;59.40;;;;;;6235969;22;19930;-77
2023/04/29 10:35:21;;;;;;;;;;;17.90;60.10;;;;;;6213586;22;20309;-78
2023/04/29 10:37:48;;;;;;;;;;;17.70;60.30;;;;;;6208458;22;20002;-80
2023/04/29 10:40:17;;;;;;;;;;;18.10;60.50;;;;;;6215249;22;20376;-79
2023/04/29 10:42:45;;;;;;;;;;;18.40;60.20;;;;;;6210874;22;19918;-80
2023/04/29 10:45:18;;;;;;;;;;;18.40;59.90;;;;;;6231864;22;19919;-79
2023/04/29 10:48:01;;;;;;;;;;;18.60;60.50;;;;;;6209188;22;19945;-79
2023/04/29 10:50:41;;;;;;;;;;;18.50;60.40;;;;;;6208823;22;19923;-79
2023/04/29 10:53:08;;;;;;;;;;;18.50;59.90;;;;;;6212396;22;19923;-80
2023/04/29 10:55:36;;;;;;;;;;;18.40;60.70;;;;;;6208919;22;20425;-79
2023/04/29 10:58:03;;;;;;;;;;;18.40;60.80;;;;;;6209470;22;20357;-79
2023/04/29 11:00:32;;;;;;;;;;;18.30;60.10;;;;;;6210364;22;19942;-79
2023/04/29 11:03:00;;;;;;;;;;;18.40;60.10;;;;;;6206205;22;19919;-79
2023/04/29 11:05:34;;;;;;;;;;;18.90;59.80;;;;;;6202047;22;19924;-80
2023/04/29 11:08:22;;;;;;;;;;;19.30;60.30;;;;;;6233506;22;20347;-80
2023/04/29 11:10:52;;;;;;;;;;;19.30;59.40;;;;;;6236045;22;19921;-80
2023/04/29 11:13:27;;;;;;;;;;;19.20;57.80;;;;;;6208354;22;19927;-80
2023/04/29 11:16:09;;;;;;;;;;;19.00;58.70;;;;;;6208723;22;19919;-78
2023/04/29 11:18:55;;;;;;;;;;;18.80;59.70;;;;;;6211993;22;20339;-81
2023/04/29 11:21:22;;;;;;;;;;;18.90;59.50;;;;;;6208117;22;19946;-80
2023/04/29 11:23:50;;;;;;;;;;;19.00;59.50;;;;;;6212116;22;20319;-79
2023/04/29 11:26:20;;;;;;;;;;;19.10;59.50;;;;;;6211167;22;20198;-79
2023/04/29 11:28:47;;;;;;;;;;;19.20;59.70;;;;;;6210340;22;19941;-80
2023/04/29 11:31:14;;;;;;;;;;;19.10;59.10;;;;;;6213336;22;20028;-80
2023/04/29 11:33:41;;;;;;;;;;;19.00;58.40;;;;;;6213879;22;19926;-81
2023/04/29 11:36:10;;;;;;;;;;;19.10;58.10;;;;;;6210520;22;20304;-80
2023/04/29 11:38:38;;;;;;;;;;;19.50;57.40;;;;;;6209747;22;19915;-81
2023/04/29 11:41:05;;;;;;;;;;;19.90;58.80;;;;;;6238302;22;19919;-78
2023/04/29 11:43:32;;;;;;;;;;;20.00;58.40;;;;;;6210503;22;19990;-79
2023/04/29 11:45:59;;;;;;;;;;;19.90;58.90;;;;;;6237088;22;19919;-80
2023/04/29 11:48:28;;;;;;;;;;;19.70;57.40;;;;;;6207973;22;19919;-80
2023/04/29 11:50:57;;;;;;;;;;;19.70;57.50;;;;;;6235202;22;19919;-80
2023/04/29 11:53:26;;;;;;;;;;;20.00;57.50;;;;;;6218475;22;19966;-79
2023/04/29 11:55:54;;;;;;;;;;;20.10;58.00;;;;;;6207606;22;20368;-80
2023/04/29 11:58:21;;;;;;;;;;;20.10;58.80;;;;;;6208297;22;20245;-81
2023/04/29 12:00:48;;;;;;;;;;;20.00;58.60;;;;;;6171247;23;20118;-80
2023/04/29 12:03:16;;;;;;;;;;;20.00;59.90;;;;;;6174022;23;20359;-78
2023/04/29 12:05:50;;;;;;;;;;;19.90;58.80;;;;;;6167128;23;19920;-80
2023/04/29 12:08:21;;;;;;;;;;;19.70;59.00;;;;;;6172070;23;19926;-81
2023/04/29 12:10:48;;;;;;;;;;;19.60;57.70;;;;;;6173991;23;19948;-80
2023/04/29 12:13:16;;;;;;;;;;;19.50;58.50;;;;;;6170492;23;20363;-80
2023/04/29 12:15:47;;;;;;;;;;;19.40;58.20;;;;;;6182151;23;19916;-79
2023/04/29 12:18:15;;;;;;;;;;;19.60;60.60;;;;;;6173209;23;20002;-80
2023/04/29 12:20:43;;;;;;;;;;;19.50;59.30;;;;;;6172353;23;19927;-81
2023/04/29 12:23:11;;;;;;;;;;;19.50;59.00;;;;;;6196302;23;19943;-80
2023/04/29 12:25:40;;;;;;;;;;;19.40;59.20;;;;;;6171136;23;20044;-79
2023/04/29 12:28:16;;;;;;;;;;;19.60;60.10;;;;;;6170972;23;19975;-80
2023/04/29 12:30:44;;;;;;;;;;;19.40;58.00;;;;;;6171029;22;19926;-81
2023/04/29 12:33:19;;;;;;;;;;;19.50;58.30;;;;;;6209259;22;20007;-81
2023/04/29 12:35:46;;;;;;;;;;;19.90;59.10;;;;;;6208344;22;20313;-81
2023/04/29 12:38:20;;;;;;;;;;;20.10;60.10;;;;;;6207251;22;20330;-80
2023/04/29 12:40:48;;;;;;;;;;;20.10;59.00;;;;;;6206471;22;20395;-80
2023/04/29 12:43:15;;;;;;;;;;;20.20;58.90;;;;;;6208148;22;20327;-80
2023/04/29 12:45:42;;;;;;;;;;;20.30;58.00;;;;;;6203852;22;20339;-81
2023/04/29 12:48:10;;;;;;;;;;;20.40;57.90;;;;;;6207472;22;20396;-81
2023/04/29 12:50:57;;;;;;;;;;;20.30;57.80;;;;;;6213386;22;20328;-81
2023/04/29 12:53:25;;;;;;;;;;;19.90;58.10;;;;;;6207921;22;19919;-80
2023/04/29 12:55:52;;;;;;;;;;;20.10;58.30;;;;;;6209676;22;20406;-79
2023/04/29 12:58:19;;;;;;;;;;;20.20;57.90;;;;;;6232906;22;19923;-81
2023/04/29 13:00:46;;;;;;;;;;;20.20;57.90;;;;;;6209615;22;19919;-81
2023/04/29 13:03:13;;;;;;;;;;;20.30;59.00;;;;;;6211126;22;19919;-81
2023/04/29 13:05:41;;;;;;;;;;;20.50;58.60;;;;;;6211812;22;20037;-80
2023/04/29 13:08:08;;;;;;;;;;;20.60;58.50;;;;;;6234601;22;19930;-78
2023/04/29 13:10:35;;;;;;;;;;;20.60;57.30;;;;;;6207145;22;20021;-78
2023/04/29 13:13:02;;;;;;;;;;;20.40;57.20;;;;;;6210425;22;19935;-79
2023/04/29 13:15:30;;;;;;;;;;;20.50;57.80;;;;;;6233795;22;19919;-76
2023/04/29 13:17:58;;;;;;;;;;;20.70;58.10;;;;;;6210324;22;19915;-80
2023/04/29 13:20:25;;;;;;;;;;;20.60;58.30;;;;;;6208015;22;19919;-79
2023/04/29 13:22:54;;;;;;;;;;;20.30;58.50;;;;;;6211465;22;19919;-79
2023/04/29 13:25:21;;;;;;;;;;;20.00;59.60;;;;;;6204834;22;19929;-80
2023/04/29 13:27:49;;;;;;;;;;;19.80;58.40;;;;;;6212446;22;19923;-79
2023/04/29 13:30:16;;;;;;;;;;;19.80;57.70;;;;;;6211193;22;19919;-79
2023/04/29 13:32:43;;;;;;;;;;;20.00;58.40;;;;;;6235192;22;19946;-80
2023/04/29 13:35:20;;;;;;;;;;;20.40;59.40;;;;;;6210597;22;19954;-80
2023/04/29 13:37:48;;;;;;;;;;;20.70;58.00;;;;;;6208019;22;19919;-77
2023/04/29 13:40:15;;;;;;;;;;;20.70;58.20;;;;;;6230017;22;20328;-80
2023/04/29 13:42:46;;;;;;;;;;;20.70;57.50;;;;;;6209550;22;19943;-79
2023/04/29 13:45:22;;;;;;;;;;;20.70;57.80;;;;;;6209565;22;19926;-79
2023/04/29 13:47:52;;;;;;;;;;;21.00;57.80;;;;;;6234163;22;19969;-80
2023/04/29 13:50:40;;;;;;;;;;;21.10;58.50;;;;;;6209413;22;19930;-81
2023/04/29 13:53:10;;;;;;;;;;;21.10;57.70;;;;;;6218773;22;19938;-80
2023/04/29 13:55:58;;;;;;;;;;;21.20;56.90;;;;;;6219430;22;19977;-79
2023/04/29 13:58:46;;;;;;;;;;;21.40;56.50;;;;;;6209811;22;20382;-78
2023/04/29 14:01:16;;;;;;;;;;;21.30;56.90;;;;;;6205167;22;19919;-78
2023/04/29 14:04:03;;;;;;;;;;;20.90;56.20;;;;;;6205075;22;20726;-80
2023/04/29 14:06:33;;;;;;;;;;;20.80;57.70;;;;;;6201444;22;20055;-80
2023/04/29 14:09:00;;;;;;;;;;;20.80;57.40;;;;;;6206536;22;20000;-78
2023/04/29 14:11:29;;;;;;;;;;;20.70;58.40;;;;;;6213230;22;19925;-80
2023/04/29 14:13:56;;;;;;;;;;;21.00;58.30;;;;;;6205296;22;19977;-79
2023/04/29 14:16:23;;;;;;;;;;;21.10;57.40;;;;;;6199510;22;20397;-80
2023/04/29 14:18:51;;;;;;;;;;;20.80;56.90;;;;;;6234345;22;20041;-80
2023/04/29 14:21:18;;;;;;;;;;;20.50;56.80;;;;;;6209329;22;19915;-80
2023/04/29 14:23:48;;;;;;;;;;;20.10;57.40;;;;;;6206533;22;19930;-80
2023/04/29 14:26:15;;;;;;;;;;;20.20;58.20;;;;;;6211611;22;19919;-80